Weather History for KPPA - February, 2012

Change the Weather History Date:

Saturday, February 11, 2012

  Actual Average Record
Temperature  
Mean Temperature 18 °F -  
Max Temperature 23 °F 51 °F 76 °F (1976)
Min Temperature 14 °F 22 °F -7 °F (1981)
Degree Days  
Heating Degree Days 46    
Moisture  
Dew Point 12 °F    
Average Humidity 73    
Maximum Humidity 86    
Minimum Humidity 59    
Precipitation  
Precipitation 0.00 in - - ()
Sea Level Pressure  
Sea Level Pressure 30.48 in    
Wind  
Wind Speed 13 mph (ENE)    
Max Wind Speed 18 mph    
Max Gust Speed 21 mph    
Visibility 10 miles    
Events      
Averages and records for this station are not official NWS values.
T = Trace of Precipitation, MM = Missing Value Source: NWS Daily Summary

Daily Weather History Graph

Daily Weather History Graph

Search for Another Location

Airport or City:

Trip Planner

Search our weather history database for the weather conditions in past years. The results will help you decide how hot, cold, wet, or windy it might be!

Date:

Astronomy

Feb. 11, 2012 Rise Set
Actual Time 7:35 AM CST 6:21 PM CST
Civil Twilight 7:09 AM CST 6:47 PM CST
Nautical Twilight 6:39 AM CST 7:17 PM CST
Astronomical Twilight 6:09 AM CST 7:47 PM CST
Moon 10:58 PM CST (2/11) 9:30 AM CST (2/11)
Length of Visible Light 11h 38m
Length of Day
10h 46m
Waning Gibbous, 82% of the Moon is Illuminated
Feb 11
Waning Gibbous
Feb 14
Last Quarter
Feb 21
New
Feb 29
First Quarter
Mar 8
Full

Hourly Weather History & Observations

Time (CST) Temp. Windchill Dew Point Humidity Pressure Visibility Wind Dir Wind Speed Gust Speed Precip Events Conditions
12:15 AM 23.0 °F 9.6 °F 19.4 °F 86% 30.35 in 10.0 mi ENE 16.1 mph - N/A   Mostly Cloudy
12:35 AM 23.0 °F 10.1 °F 19.4 °F 86% 30.34 in 10.0 mi East 15.0 mph - N/A   Overcast
12:55 AM 23.0 °F 10.1 °F 19.4 °F 86% 30.35 in 10.0 mi East 15.0 mph 19.6 mph N/A   Overcast
1:15 AM 23.0 °F 10.1 °F 19.4 °F 86% 30.36 in 10.0 mi ENE 15.0 mph - N/A   Overcast
1:35 AM 23.0 °F 10.6 °F 19.4 °F 86% 30.37 in 10.0 mi ENE 13.8 mph 20.7 mph N/A   Overcast
1:55 AM 21.2 °F 7.8 °F 17.6 °F 86% 30.39 in 10.0 mi ENE 15.0 mph - N/A   Overcast
2:15 AM 21.2 °F 7.8 °F 14.0 °F 74% 30.40 in 10.0 mi ENE 15.0 mph - N/A   Overcast
2:35 AM 19.4 °F 6.6 °F 12.2 °F 74% 30.41 in 10.0 mi ENE 12.7 mph - N/A   Overcast
2:55 AM 19.4 °F 9.5 °F 12.2 °F 74% 30.43 in 10.0 mi ENE 8.1 mph - N/A   Scattered Clouds
3:15 AM 17.6 °F 5.0 °F 12.2 °F 79% 30.43 in 10.0 mi NE 11.5 mph - N/A   Clear
3:35 AM 17.6 °F 5.7 °F 10.4 °F 73% 30.44 in 10.0 mi NE 10.4 mph - N/A   Clear
3:55 AM 17.6 °F 4.3 °F 12.2 °F 79% 30.45 in 10.0 mi ENE 12.7 mph - N/A   Scattered Clouds
4:15 AM 17.6 °F 5.7 °F 10.4 °F 73% 30.45 in 10.0 mi NE 10.4 mph - N/A   Scattered Clouds
4:35 AM 15.8 °F 4.2 °F 10.4 °F 79% 30.46 in 10.0 mi NE 9.2 mph - N/A   Clear
4:55 AM 15.8 °F 2.7 °F 10.4 °F 79% 30.47 in 10.0 mi NE 11.5 mph - N/A   Clear
5:15 AM 15.8 °F 2.1 °F 10.4 °F 79% 30.48 in 10.0 mi NE 12.7 mph - N/A   Scattered Clouds
5:35 AM 15.8 °F 0.3 °F 10.4 °F 79% 30.48 in 10.0 mi NE 16.1 mph - N/A   Overcast
5:55 AM 15.8 °F -0.2 °F 10.4 °F 79% 30.48 in 10.0 mi NE 17.3 mph - N/A   Overcast
6:15 AM 14.0 °F -1.4 °F 10.4 °F 86% 30.49 in 10.0 mi NE 15.0 mph 20.7 mph N/A   Overcast
6:35 AM 14.0 °F -1.4 °F 10.4 °F 86% 30.50 in 10.0 mi NE 15.0 mph - N/A   Overcast
6:55 AM 14.0 °F -0.8 °F 10.4 °F 86% 30.50 in 10.0 mi NE 13.8 mph 18.4 mph N/A   Mostly Cloudy
7:15 AM 14.0 °F -0.2 °F 10.4 °F 86% 30.50 in 10.0 mi ENE 12.7 mph - N/A   Scattered Clouds
7:35 AM 14.0 °F -0.2 °F 10.4 °F 86% 30.51 in 10.0 mi ENE 12.7 mph - N/A   Clear
7:55 AM 14.0 °F -0.2 °F 10.4 °F 86% 30.51 in 10.0 mi ENE 12.7 mph 17.3 mph N/A   Clear
8:15 AM 15.8 °F 0.9 °F 10.4 °F 79% 30.52 in 10.0 mi ENE 15.0 mph - N/A   Mostly Cloudy
8:35 AM 17.6 °F 1.7 °F 10.4 °F 73% 30.53 in 10.0 mi ENE 18.4 mph - N/A   Overcast
8:55 AM 15.8 °F -0.2 °F 8.6 °F 73% 30.53 in 10.0 mi ENE 17.3 mph - N/A   Overcast
9:15 AM 17.6 °F 2.7 °F 8.6 °F 68% 30.54 in 10.0 mi ENE 16.1 mph - N/A   Overcast
9:35 AM 17.6 °F 4.3 °F 10.4 °F 73% 30.55 in 10.0 mi NE 12.7 mph - N/A   Overcast
9:55 AM 17.6 °F 3.7 °F 10.4 °F 73% 30.55 in 10.0 mi NE 13.8 mph - N/A   Overcast
10:15 AM 19.4 °F 6.0 °F 10.4 °F 68% 30.55 in 10.0 mi ENE 13.8 mph 20.7 mph N/A   Mostly Cloudy
10:35 AM 21.2 °F 8.3 °F 10.4 °F 63% 30.55 in 10.0 mi NE 13.8 mph - N/A   Mostly Cloudy
10:55 AM 21.2 °F 8.9 °F 10.4 °F 63% 30.55 in 10.0 mi NE 12.7 mph 18.4 mph N/A   Scattered Clouds
11:15 AM 21.2 °F 8.9 °F 10.4 °F 63% 30.55 in 10.0 mi NE 12.7 mph 19.6 mph N/A   Mostly Cloudy
11:35 AM 23.0 °F 12.4 °F 10.4 °F 59% 30.55 in 10.0 mi ENE 10.4 mph 18.4 mph N/A   Scattered Clouds
11:55 AM 23.0 °F 13.1 °F 10.4 °F 59% 30.53 in 10.0 mi ENE 9.2 mph - N/A   Scattered Clouds
12:15 PM 23.0 °F 13.1 °F 10.4 °F 59% 30.53 in 10.0 mi NE 9.2 mph - N/A   Scattered Clouds
12:35 PM 23.0 °F 12.4 °F 10.4 °F 59% 30.52 in 10.0 mi ENE 10.4 mph 16.1 mph N/A   Overcast
12:55 PM 23.0 °F 13.1 °F 10.4 °F 59% 30.51 in 10.0 mi ENE 9.2 mph - N/A   Overcast
1:15 PM 23.0 °F 11.1 °F 12.2 °F 63% 30.50 in 10.0 mi NE 12.7 mph 16.1 mph N/A   Overcast
1:35 PM 23.0 °F 11.7 °F 12.2 °F 63% 30.49 in 10.0 mi ENE 11.5 mph - N/A   Overcast
1:55 PM 21.2 °F 10.1 °F 10.4 °F 63% 30.49 in 10.0 mi NE 10.4 mph 17.3 mph N/A   Overcast
2:15 PM 21.2 °F 10.1 °F 12.2 °F 68% 30.49 in 10.0 mi ENE 10.4 mph - N/A   Overcast
2:35 PM 21.2 °F 10.1 °F 12.2 °F 68% 30.48 in 10.0 mi NE 10.4 mph - N/A   Overcast
2:55 PM 21.2 °F 10.1 °F 12.2 °F 68% 30.48 in 10.0 mi ENE 10.4 mph - N/A   Overcast
3:15 PM 21.2 °F 10.9 °F 12.2 °F 68% 30.48 in 10.0 mi NE 9.2 mph - N/A   Overcast
3:35 PM 21.2 °F 10.9 °F 12.2 °F 68% 30.47 in 10.0 mi ENE 9.2 mph - N/A   Overcast
3:55 PM 21.2 °F 10.1 °F 12.2 °F 68% 30.46 in 10.0 mi East 10.4 mph - N/A   Overcast
4:15 PM 21.2 °F 10.9 °F 12.2 °F 68% 30.46 in 10.0 mi East 9.2 mph - N/A   Overcast
4:35 PM 21.2 °F 10.9 °F 12.2 °F 68% 30.47 in 10.0 mi East 9.2 mph - N/A   Overcast
4:55 PM 21.2 °F 10.1 °F 12.2 °F 68% 30.46 in 10.0 mi East 10.4 mph - N/A   Overcast
5:15 PM 19.4 °F 7.9 °F 12.2 °F 74% 30.47 in 10.0 mi ENE 10.4 mph - N/A   Overcast
5:35 PM 19.4 °F 7.9 °F 12.2 °F 74% 30.47 in 10.0 mi ENE 10.4 mph - N/A   Overcast
5:55 PM 19.4 °F 8.6 °F 12.2 °F 74% 30.47 in 10.0 mi East 9.2 mph - N/A   Overcast
6:15 PM 19.4 °F 9.5 °F 12.2 °F 74% 30.48 in 10.0 mi ENE 8.1 mph - N/A   Overcast
6:35 PM 19.4 °F - 12.2 °F 74% 30.49 in 10.0 mi Calm Calm - N/A   Overcast
6:55 PM 19.4 °F - 12.2 °F 74% 30.48 in 10.0 mi Calm Calm - N/A   Overcast
7:15 PM 19.4 °F 9.5 °F 12.2 °F 74% 30.47 in 10.0 mi East 8.1 mph - N/A   Overcast
7:35 PM 19.4 °F 8.6 °F 12.2 °F 74% 30.48 in 10.0 mi ENE 9.2 mph - N/A   Overcast
7:55 PM 19.4 °F 8.6 °F 12.2 °F 74% 30.48 in 10.0 mi East 9.2 mph - N/A   Overcast
8:15 PM 19.4 °F 8.6 °F 12.2 °F 74% 30.49 in 10.0 mi ENE 9.2 mph - N/A   Overcast
8:35 PM 19.4 °F 8.6 °F 12.2 °F 74% 30.48 in 10.0 mi ENE 9.2 mph - N/A   Overcast
8:55 PM 19.4 °F 8.6 °F 12.2 °F 74% 30.48 in 10.0 mi ENE 9.2 mph - N/A   Overcast
9:15 PM 19.4 °F 7.2 °F 12.2 °F 74% 30.47 in 10.0 mi ENE 11.5 mph - N/A   Overcast
9:35 PM 19.4 °F 10.4 °F 12.2 °F 74% 30.49 in 10.0 mi East 6.9 mph - N/A   Overcast
9:55 PM 19.4 °F 10.4 °F 10.4 °F 68% 30.49 in 10.0 mi East 6.9 mph - N/A   Overcast
10:15 PM 19.4 °F 9.5 °F 10.4 °F 68% 30.48 in 10.0 mi ESE 8.1 mph - N/A   Overcast
10:35 PM 19.4 °F 7.9 °F 10.4 °F 68% 30.47 in 10.0 mi ESE 10.4 mph - N/A   Overcast
10:55 PM 19.4 °F 9.5 °F 10.4 °F 68% 30.47 in 10.0 mi ESE 8.1 mph - N/A   Overcast
11:15 PM 19.4 °F 8.6 °F 10.4 °F 68% 30.46 in 10.0 mi ESE 9.2 mph - N/A   Overcast
11:35 PM 19.4 °F 10.4 °F 10.4 °F 68% 30.47 in 10.0 mi SE 6.9 mph - N/A   Overcast
11:55 PM 19.4 °F 9.5 °F 10.4 °F 68% 30.47 in 10.0 mi SSE 8.1 mph - N/A   Overcast